createdAt,value
2024-05-09T00:00:06.840Z,95.04
2024-05-09T00:01:06.263Z,96.16
2024-05-09T00:02:06.434Z,94.95
2024-05-09T00:03:06.310Z,95.11
2024-05-09T00:04:06.346Z,94.91
2024-05-09T00:05:06.379Z,95.38
2024-05-09T00:06:06.308Z,94.93
2024-05-09T00:07:06.266Z,94.52
2024-05-09T00:08:06.396Z,94.26
2024-05-09T00:09:06.243Z,93.99
2024-05-09T00:10:09.234Z,94.20
2024-05-09T00:11:07.312Z,94.29
2024-05-09T00:12:06.418Z,94.47
2024-05-09T00:13:06.670Z,94.54
2024-05-09T00:14:06.307Z,95.61
2024-05-09T00:15:06.267Z,95.26
2024-05-09T00:16:06.288Z,93.90
2024-05-09T00:17:06.379Z,94.57
2024-05-09T00:18:06.961Z,94.56
2024-05-09T00:19:06.394Z,93.17
2024-05-09T00:20:14.271Z,92.89
2024-05-09T00:21:07.426Z,93.01
2024-05-09T00:22:06.280Z,93.21
2024-05-09T00:23:06.323Z,93.18
2024-05-09T00:24:06.290Z,94.93
2024-05-09T00:25:06.281Z,93.53
2024-05-09T00:26:06.289Z,94.40
2024-05-09T00:27:06.328Z,95.54
2024-05-09T00:28:06.307Z,93.69
2024-05-09T00:29:06.362Z,94.03
2024-05-09T00:30:07.389Z,94.04
2024-05-09T00:31:06.300Z,93.11
2024-05-09T00:32:06.337Z,93.28
2024-05-09T00:33:07.618Z,93.34
2024-05-09T00:34:06.503Z,93.56
2024-05-09T00:35:06.504Z,93.79
2024-05-09T00:36:06.519Z,93.13
2024-05-09T00:37:06.565Z,93.34
2024-05-09T00:38:06.794Z,93.01
2024-05-09T00:39:06.562Z,91.70
2024-05-09T00:40:09.564Z,93.90
2024-05-09T00:41:07.642Z,93.97
2024-05-09T00:42:06.613Z,93.76
2024-05-09T00:43:06.634Z,93.97
2024-05-09T00:44:06.670Z,93.60
2024-05-09T00:45:06.598Z,92.51
2024-05-09T00:46:06.605Z,92.52
2024-05-09T00:47:06.749Z,92.08
2024-05-09T00:48:07.800Z,93.89
2024-05-09T00:49:06.710Z,94.18
2024-05-09T00:50:10.142Z,94.17
2024-05-09T00:51:07.824Z,94.22
2024-05-09T00:52:06.671Z,93.29
2024-05-09T00:53:07.041Z,93.20
2024-05-09T00:54:06.667Z,94.38
2024-05-09T00:55:06.669Z,92.93
2024-05-09T00:56:06.820Z,92.03
2024-05-09T00:57:06.735Z,91.93
2024-05-09T00:58:06.697Z,91.16
2024-05-09T00:59:06.714Z,92.98
2024-05-09T01:00:12.222Z,92.29
2024-05-09T01:01:07.734Z,92.35
2024-05-09T01:02:06.827Z,92.61
2024-05-09T01:03:07.005Z,92.68
2024-05-09T01:04:06.929Z,91.98
2024-05-09T01:05:06.822Z,91.54
2024-05-09T01:06:06.801Z,91.70
2024-05-09T01:07:06.787Z,92.90
2024-05-09T01:08:06.855Z,92.17
2024-05-09T01:09:06.703Z,91.85
2024-05-09T01:10:13.818Z,90.09
2024-05-09T01:11:07.757Z,90.25
2024-05-09T01:12:06.880Z,90.37
2024-05-09T01:13:07.199Z,90.77
2024-05-09T01:14:06.853Z,91.73
2024-05-09T01:15:06.719Z,91.51
2024-05-09T01:16:06.739Z,92.78
2024-05-09T01:17:06.841Z,90.81
2024-05-09T01:18:07.007Z,89.66
2024-05-09T01:19:06.852Z,90.95
2024-05-09T01:20:10.783Z,90.78
2024-05-09T01:21:07.767Z,90.81
2024-05-09T01:22:06.754Z,90.79
2024-05-09T01:23:06.895Z,91.11
2024-05-09T01:24:06.738Z,90.50
2024-05-09T01:25:06.751Z,92.85
2024-05-09T01:26:06.800Z,91.19
2024-05-09T01:27:06.760Z,91.51
2024-05-09T01:28:06.790Z,90.94
2024-05-09T01:29:06.788Z,89.33
2024-05-09T01:30:09.566Z,89.52
2024-05-09T01:31:07.770Z,89.64
2024-05-09T01:32:06.827Z,89.54
2024-05-09T01:33:08.935Z,89.77
2024-05-09T01:34:06.806Z,89.61
2024-05-09T01:35:06.856Z,89.81
2024-05-09T01:36:06.774Z,89.93
2024-05-09T01:37:06.789Z,90.25
2024-05-09T01:38:06.954Z,89.22
2024-05-09T01:39:06.781Z,90.05
2024-05-09T01:40:09.751Z,88.82
2024-05-09T01:41:07.794Z,88.96
2024-05-09T01:42:06.772Z,89.36
2024-05-09T01:43:07.010Z,89.95
2024-05-09T01:44:06.826Z,90.08
2024-05-09T01:45:06.770Z,89.96
2024-05-09T01:46:06.787Z,89.79
2024-05-09T01:47:06.906Z,88.58
2024-05-09T01:48:07.055Z,90.37
2024-05-09T01:49:07.014Z,89.06
2024-05-09T01:50:10.662Z,88.86
2024-05-09T01:51:06.858Z,88.99
2024-05-09T01:52:06.814Z,89.01
2024-05-09T01:53:06.892Z,89.15
2024-05-09T01:54:06.803Z,89.85
2024-05-09T01:55:07.064Z,88.66
2024-05-09T01:56:06.884Z,90.24
2024-05-09T01:57:06.806Z,89.33
2024-05-09T01:58:06.825Z,88.77
2024-05-09T01:59:06.908Z,88.21
2024-05-09T02:00:07.963Z,87.69
2024-05-09T02:01:06.850Z,87.25
2024-05-09T02:02:07.083Z,87.40
2024-05-09T02:03:07.219Z,87.01
2024-05-09T02:04:07.191Z,89.18
2024-05-09T02:05:07.065Z,87.66
2024-05-09T02:06:06.988Z,86.53
2024-05-09T02:07:06.928Z,87.71
2024-05-09T02:08:06.894Z,88.50
2024-05-09T02:09:06.825Z,86.61
2024-05-09T02:10:13.753Z,88.01
2024-05-09T02:11:07.961Z,88.09
2024-05-09T02:12:07.011Z,88.38
2024-05-09T02:13:06.850Z,88.56
2024-05-09T02:14:06.863Z,87.07
2024-05-09T02:15:06.849Z,87.11
2024-05-09T02:16:06.859Z,86.82
2024-05-09T02:17:06.995Z,87.78
2024-05-09T02:18:07.226Z,87.35
2024-05-09T02:19:06.918Z,89.01
2024-05-09T02:20:10.730Z,85.94
2024-05-09T02:21:07.923Z,86.09
2024-05-09T02:22:06.891Z,86.41
2024-05-09T02:23:07.290Z,86.70
2024-05-09T02:24:06.890Z,87.27
2024-05-09T02:25:06.863Z,87.78
2024-05-09T02:26:06.979Z,86.65
2024-05-09T02:27:06.932Z,87.42
2024-05-09T02:28:06.873Z,87.12
2024-05-09T02:29:06.928Z,86.56
2024-05-09T02:30:18.325Z,86.97
2024-05-09T02:31:07.891Z,86.99
2024-05-09T02:32:07.111Z,87.06
2024-05-09T02:33:07.364Z,87.32
2024-05-09T02:34:06.964Z,86.85
2024-05-09T02:35:06.942Z,86.39
2024-05-09T02:36:06.912Z,87.11
2024-05-09T02:37:06.957Z,85.77
2024-05-09T02:38:06.998Z,87.62
2024-05-09T02:39:06.898Z,86.58
2024-05-09T02:40:09.334Z,84.69
2024-05-09T02:41:07.166Z,84.83
2024-05-09T02:42:06.909Z,85.13
2024-05-09T02:43:07.307Z,85.04
2024-05-09T02:44:07.035Z,84.81
2024-05-09T02:45:06.924Z,85.65
2024-05-09T02:46:06.946Z,86.74
2024-05-09T02:47:07.269Z,86.52
2024-05-09T02:48:07.276Z,86.34
2024-05-09T02:49:06.981Z,85.43
2024-05-09T02:50:08.232Z,85.16
2024-05-09T02:51:07.042Z,84.66
2024-05-09T02:52:06.942Z,85.83
2024-05-09T02:53:07.068Z,85.48
2024-05-09T02:54:06.925Z,84.80
2024-05-09T02:55:06.944Z,85.79
2024-05-09T02:56:07.024Z,85.38
2024-05-09T02:57:06.972Z,84.22
2024-05-09T02:58:06.983Z,86.93
2024-05-09T02:59:07.013Z,84.80
2024-05-09T03:00:14.951Z,85.61
2024-05-09T03:01:07.985Z,85.70
2024-05-09T03:02:07.046Z,84.92
2024-05-09T03:03:07.332Z,85.75
2024-05-09T03:04:07.140Z,84.97
2024-05-09T03:05:07.054Z,84.26
2024-05-09T03:06:06.949Z,84.79
2024-05-09T03:07:06.988Z,85.61
2024-05-09T03:08:07.094Z,84.29
2024-05-09T03:09:06.968Z,84.55
2024-05-09T03:10:12.238Z,84.50
2024-05-09T03:11:08.039Z,84.58
2024-05-09T03:12:07.034Z,84.89
2024-05-09T03:13:06.978Z,84.84
2024-05-09T03:14:07.020Z,84.78
2024-05-09T03:15:06.971Z,85.10
2024-05-09T03:16:06.965Z,84.09
2024-05-09T03:17:07.093Z,84.71
2024-05-09T03:18:07.463Z,84.45
2024-05-09T03:19:07.043Z,82.90
2024-05-09T03:20:11.494Z,84.11
2024-05-09T03:21:08.046Z,84.19
2024-05-09T03:22:07.027Z,84.25
2024-05-09T03:23:07.013Z,83.35
2024-05-09T03:24:07.010Z,84.95
2024-05-09T03:25:06.996Z,84.29
2024-05-09T03:26:07.022Z,84.34
2024-05-09T03:27:07.068Z,84.61
2024-05-09T03:28:07.071Z,82.48
2024-05-09T03:29:07.046Z,84.66
2024-05-09T03:30:07.675Z,84.61
2024-05-09T03:31:07.000Z,84.33
2024-05-09T03:32:07.110Z,84.80
2024-05-09T03:33:07.278Z,84.24
2024-05-09T03:34:07.110Z,84.19
2024-05-09T03:35:07.039Z,84.07
2024-05-09T03:36:09.766Z,82.34
2024-05-09T03:37:07.084Z,82.48
2024-05-09T03:38:07.095Z,82.93
2024-05-09T03:39:07.026Z,83.27
2024-05-09T03:40:11.668Z,83.38
2024-05-09T03:41:08.083Z,82.55
2024-05-09T03:42:07.028Z,82.86
2024-05-09T03:43:07.025Z,83.05
2024-05-09T03:44:07.080Z,84.41
2024-05-09T03:45:07.040Z,86.31
2024-05-09T03:46:07.129Z,83.95
2024-05-09T03:47:07.167Z,83.75
2024-05-09T03:48:07.249Z,83.34
2024-05-09T03:49:07.104Z,83.93
2024-05-09T03:50:14.993Z,81.98
2024-05-09T03:51:08.115Z,82.12
2024-05-09T03:52:07.102Z,82.31
2024-05-09T03:53:07.132Z,82.44
2024-05-09T03:54:07.043Z,82.79
2024-05-09T03:55:07.064Z,83.15
2024-05-09T03:56:07.101Z,84.54
2024-05-09T03:57:07.109Z,83.58
2024-05-09T03:58:07.086Z,84.30
2024-05-09T03:59:07.107Z,81.82
2024-05-09T04:00:14.484Z,84.22
2024-05-09T04:01:08.091Z,84.28
2024-05-09T04:02:07.132Z,82.44
2024-05-09T04:03:09.297Z,84.24
2024-05-09T04:04:07.109Z,84.27
2024-05-09T04:05:07.150Z,84.24
2024-05-09T04:06:07.107Z,83.56
2024-05-09T04:07:07.128Z,84.54
2024-05-09T04:08:07.207Z,83.03
2024-05-09T04:09:07.118Z,83.29
2024-05-09T04:10:11.095Z,83.33
2024-05-09T04:11:08.200Z,83.38
2024-05-09T04:12:07.132Z,83.39
2024-05-09T04:13:07.136Z,83.80
2024-05-09T04:14:07.133Z,84.16
2024-05-09T04:15:09.585Z,83.66
2024-05-09T04:16:07.110Z,83.36
2024-05-09T04:17:07.252Z,83.37
2024-05-09T04:18:07.413Z,82.99
2024-05-09T04:19:07.232Z,83.41
2024-05-09T04:20:10.531Z,81.79
2024-05-09T04:21:07.153Z,83.41
2024-05-09T04:22:07.101Z,83.52
2024-05-09T04:23:08.138Z,82.20
2024-05-09T04:24:07.113Z,84.43
2024-05-09T04:25:07.091Z,83.64
2024-05-09T04:26:07.170Z,83.79
2024-05-09T04:27:07.313Z,81.52
2024-05-09T04:28:07.117Z,83.12
2024-05-09T04:29:07.197Z,83.44
2024-05-09T04:30:21.668Z,50.00
2024-05-09T04:31:26.540Z,50.00
2024-05-09T04:32:26.681Z,50.00
2024-05-09T04:33:26.720Z,50.00
2024-05-09T04:34:26.610Z,50.00
2024-05-09T04:35:26.728Z,50.00
2024-05-09T04:36:26.555Z,52.36
2024-05-09T04:37:26.541Z,51.43
2024-05-09T04:38:26.557Z,50.00
2024-05-09T04:39:26.545Z,50.91
2024-05-09T04:40:33.101Z,51.05
2024-05-09T04:41:27.637Z,51.21
2024-05-09T04:42:26.560Z,51.45
2024-05-09T04:43:26.585Z,50.52
2024-05-09T04:44:26.690Z,48.80
2024-05-09T04:45:26.567Z,50.14
2024-05-09T04:46:26.570Z,53.16
2024-05-09T04:47:26.731Z,50.91
2024-05-09T04:48:26.825Z,53.88
2024-05-09T04:49:26.686Z,51.26
2024-05-09T04:50:35.446Z,51.68
2024-05-09T04:51:27.589Z,51.80
2024-05-09T04:52:26.630Z,51.13
2024-05-09T04:53:26.625Z,51.77
2024-05-09T04:54:34.193Z,50.44
2024-05-09T04:55:27.604Z,51.72
2024-05-09T04:56:26.602Z,52.07
2024-05-09T04:57:26.597Z,52.46
2024-05-09T04:58:26.603Z,48.87
2024-05-09T04:59:26.692Z,49.48
2024-05-09T05:00:34.546Z,50.59
2024-05-09T05:01:27.654Z,50.69
2024-05-09T05:02:26.666Z,50.75
2024-05-09T05:03:26.680Z,51.28
2024-05-09T05:04:26.614Z,49.39
2024-05-09T05:05:26.636Z,50.60
2024-05-09T05:06:26.610Z,51.58
2024-05-09T05:07:26.601Z,52.37
2024-05-09T05:08:26.612Z,52.68
2024-05-09T05:09:26.638Z,50.16
2024-05-09T05:10:33.575Z,51.71
2024-05-09T05:11:27.674Z,51.75
2024-05-09T05:12:26.701Z,51.78
2024-05-09T05:13:26.612Z,52.11
2024-05-09T05:14:26.667Z,52.70
2024-05-09T05:15:26.629Z,50.19
2024-05-09T05:16:26.602Z,53.19
2024-05-09T05:17:26.794Z,51.42
2024-05-09T05:18:27.292Z,50.38
2024-05-09T05:19:26.767Z,51.50
2024-05-09T05:20:32.887Z,50.57
2024-05-09T05:21:27.672Z,50.72
2024-05-09T05:22:26.646Z,51.03
2024-05-09T05:23:26.695Z,51.63
2024-05-09T05:24:26.625Z,51.02
2024-05-09T05:25:26.630Z,52.97
2024-05-09T05:26:26.663Z,52.43
2024-05-09T05:27:26.638Z,50.14
2024-05-09T05:28:26.678Z,51.99
2024-05-09T05:29:26.630Z,52.47
2024-05-09T05:30:32.402Z,51.62
2024-05-09T05:31:27.682Z,51.75
2024-05-09T05:32:27.253Z,51.88
2024-05-09T05:33:26.965Z,52.71
2024-05-09T05:34:26.650Z,52.42
2024-05-09T05:35:26.826Z,50.75
2024-05-09T05:36:26.645Z,51.27
2024-05-09T05:37:26.676Z,52.56
2024-05-09T05:38:28.522Z,50.00
2024-05-09T05:39:26.657Z,51.84
2024-05-09T05:40:33.343Z,52.22
2024-05-09T05:41:27.731Z,52.37
2024-05-09T05:42:26.687Z,52.41
2024-05-09T05:43:26.682Z,52.86
2024-05-09T05:44:26.773Z,51.73
2024-05-09T05:45:26.685Z,52.27
2024-05-09T05:46:26.672Z,51.14
2024-05-09T05:47:26.844Z,51.94
2024-05-09T05:48:26.817Z,51.56
2024-05-09T05:49:26.901Z,53.72
2024-05-09T05:50:32.612Z,51.72
2024-05-09T05:51:27.736Z,51.84
2024-05-09T05:52:27.188Z,51.84
2024-05-09T05:53:26.728Z,52.23
2024-05-09T05:54:26.686Z,52.49
2024-05-09T05:55:26.696Z,51.25
2024-05-09T05:56:26.751Z,52.10
2024-05-09T05:57:26.709Z,52.54
2024-05-09T05:58:26.700Z,51.89
2024-05-09T05:59:26.704Z,50.58
2024-05-09T06:00:34.382Z,50.65
2024-05-09T06:01:27.796Z,50.80
2024-05-09T06:02:26.793Z,50.92
2024-05-09T06:03:26.820Z,50.87
2024-05-09T06:04:26.770Z,51.06
2024-05-09T06:05:27.797Z,49.98
2024-05-09T06:06:26.715Z,51.23
2024-05-09T06:07:26.751Z,52.05
2024-05-09T06:08:30.169Z,52.84
2024-05-09T06:09:26.741Z,52.91
2024-05-09T06:10:35.063Z,52.45
2024-05-09T06:11:27.797Z,52.99
2024-05-09T06:12:26.851Z,53.19
2024-05-09T06:13:26.737Z,53.11
2024-05-09T06:14:26.871Z,53.29
2024-05-09T06:15:26.723Z,52.38
2024-05-09T06:16:26.736Z,53.21
2024-05-09T06:17:26.856Z,54.12
2024-05-09T06:18:26.998Z,50.39
2024-05-09T06:19:26.875Z,51.59
2024-05-09T06:20:34.763Z,51.79
2024-05-09T06:21:27.782Z,51.94
2024-05-09T06:22:26.740Z,51.82
2024-05-09T06:23:26.810Z,52.02
2024-05-09T06:24:26.733Z,51.17
2024-05-09T06:25:26.756Z,51.62
2024-05-09T06:26:26.823Z,50.76
2024-05-09T06:27:26.747Z,50.95
2024-05-09T06:28:26.749Z,50.00
2024-05-09T06:29:26.894Z,51.76
2024-05-09T06:30:35.309Z,51.13
2024-05-09T06:31:27.759Z,51.27
2024-05-09T06:32:26.910Z,51.39
2024-05-09T06:33:26.992Z,51.12
2024-05-09T06:34:26.952Z,51.26
2024-05-09T06:35:26.786Z,51.53
2024-05-09T06:36:26.781Z,52.11
2024-05-09T06:37:26.786Z,51.43
2024-05-09T06:38:26.817Z,52.56
2024-05-09T06:39:26.783Z,50.11
2024-05-09T06:40:35.764Z,51.80
2024-05-09T06:41:27.899Z,51.94
2024-05-09T06:42:26.805Z,52.12
2024-05-09T06:43:26.835Z,51.89
2024-05-09T06:44:26.826Z,52.45
2024-05-09T06:45:26.826Z,51.70
2024-05-09T06:46:26.783Z,51.63
2024-05-09T06:47:26.904Z,52.98
2024-05-09T06:48:26.977Z,50.29
2024-05-09T06:49:26.899Z,50.26
2024-05-09T06:50:28.429Z,51.31
2024-05-09T06:51:27.810Z,51.39
2024-05-09T06:52:26.791Z,51.52
2024-05-09T06:53:26.879Z,51.34
2024-05-09T06:54:26.816Z,51.64
2024-05-09T06:55:26.951Z,50.71
2024-05-09T06:56:26.875Z,52.04
2024-05-09T06:57:26.800Z,51.13
2024-05-09T06:58:26.843Z,51.62
2024-05-09T06:59:26.878Z,51.92
2024-05-09T07:00:34.616Z,52.35
2024-05-09T07:01:27.923Z,52.52
2024-05-09T07:02:26.907Z,52.86
2024-05-09T07:03:27.033Z,52.73
2024-05-09T07:04:26.912Z,52.79
2024-05-09T07:05:26.982Z,52.17
2024-05-09T07:06:26.888Z,53.20
2024-05-09T07:07:26.835Z,52.71
2024-05-09T07:08:26.892Z,51.49
2024-05-09T07:09:26.832Z,53.22
2024-05-09T07:10:32.887Z,53.36
2024-05-09T07:11:27.920Z,53.49
2024-05-09T07:12:26.915Z,53.84
2024-05-09T07:13:26.853Z,53.89
2024-05-09T07:14:26.919Z,53.72
2024-05-09T07:15:26.872Z,52.92
2024-05-09T07:16:26.866Z,54.36
2024-05-09T07:17:27.118Z,53.31
2024-05-09T07:18:26.976Z,52.22
2024-05-09T07:19:26.900Z,53.95
2024-05-09T07:20:33.996Z,53.87
2024-05-09T07:21:27.861Z,53.98
2024-05-09T07:22:26.889Z,54.23
2024-05-09T07:23:26.969Z,53.27
2024-05-09T07:24:26.870Z,54.05
2024-05-09T07:25:26.900Z,52.97
2024-05-09T07:26:26.963Z,50.00
2024-05-09T07:27:26.900Z,52.94
2024-05-09T07:28:26.897Z,51.10
2024-05-09T07:29:27.012Z,51.48
2024-05-09T07:30:31.069Z,50.49
2024-05-09T07:31:27.899Z,50.62
2024-05-09T07:32:27.134Z,50.89
2024-05-09T07:33:27.196Z,50.52
2024-05-09T07:34:27.042Z,51.41
2024-05-09T07:35:27.185Z,49.29
2024-05-09T07:36:26.891Z,54.18
2024-05-09T07:37:26.935Z,50.12
2024-05-09T07:38:27.001Z,50.86
2024-05-09T07:39:26.928Z,50.73
2024-05-09T07:40:34.613Z,51.11
2024-05-09T07:41:27.982Z,51.17
2024-05-09T07:42:26.899Z,51.28
2024-05-09T07:43:26.939Z,50.99
2024-05-09T07:44:26.980Z,51.38
2024-05-09T07:45:44.919Z,48.86
2024-05-09T07:47:36.850Z,51.13
2024-05-09T07:50:00.653Z,51.34
2024-05-09T07:53:32.332Z,51.35
2024-05-09T07:53:39.866Z,51.44
2024-05-09T07:54:28.149Z,51.45
2024-05-09T07:55:27.090Z,52.43
2024-05-09T07:56:27.385Z,53.08
2024-05-09T07:57:27.002Z,52.43
2024-05-09T07:58:27.096Z,51.37
2024-05-09T07:59:26.941Z,50.38
2024-05-09T08:00:31.200Z,51.56
2024-05-09T08:01:28.149Z,51.15
2024-05-09T08:02:27.049Z,51.18
2024-05-09T08:03:27.045Z,50.38
2024-05-09T08:04:27.077Z,48.82
2024-05-09T08:05:27.097Z,48.03
2024-05-09T08:06:27.057Z,51.69
2024-05-09T08:07:26.965Z,50.00
2024-05-09T08:08:27.004Z,50.12
2024-05-09T08:09:27.067Z,51.10
2024-05-09T08:10:29.021Z,53.15
2024-05-09T08:11:27.139Z,53.92
2024-05-09T08:12:27.210Z,50.39
2024-05-09T08:13:27.245Z,51.20
2024-05-09T08:14:27.324Z,52.19
2024-05-09T08:15:27.501Z,53.14
2024-05-09T08:16:27.651Z,53.03
2024-05-09T08:17:27.617Z,51.75
2024-05-09T08:18:27.761Z,50.64
2024-05-09T08:19:27.674Z,51.98
2024-05-09T08:20:33.418Z,52.27
2024-05-09T08:21:28.747Z,52.34
2024-05-09T08:22:27.680Z,52.38
2024-05-09T08:23:27.695Z,50.40
2024-05-09T08:24:27.720Z,49.64
2024-05-09T08:25:27.783Z,45.06
2024-05-09T08:26:27.688Z,50.00
2024-05-09T08:27:27.730Z,51.75
2024-05-09T08:28:27.808Z,54.05
2024-05-09T08:29:27.710Z,50.47
2024-05-09T08:30:33.710Z,50.94
2024-05-09T08:31:28.821Z,50.97
2024-05-09T08:32:27.793Z,42.04
2024-05-09T08:33:27.831Z,40.05
2024-05-09T08:34:27.809Z,29.44
2024-05-09T08:35:27.718Z,33.23
2024-05-09T08:36:27.748Z,49.74
2024-05-09T08:37:32.659Z,50.93
2024-05-09T08:38:28.706Z,51.30
2024-05-09T08:39:27.774Z,52.22
2024-05-09T08:40:33.951Z,54.20
2024-05-09T08:41:28.745Z,51.32
2024-05-09T08:42:27.771Z,51.88
2024-05-09T08:43:27.743Z,53.65
2024-05-09T08:44:27.735Z,51.71
2024-05-09T08:45:27.813Z,51.02
2024-05-09T08:46:27.921Z,55.04
2024-05-09T08:47:27.799Z,58.77
2024-05-09T08:48:28.014Z,61.23
2024-05-09T08:49:27.863Z,61.32
2024-05-09T08:50:36.166Z,63.52
2024-05-09T08:51:28.797Z,63.62
2024-05-09T08:52:27.742Z,63.89
2024-05-09T08:53:27.766Z,64.51
2024-05-09T08:54:27.808Z,66.05
2024-05-09T08:55:27.761Z,67.91
2024-05-09T08:56:27.762Z,67.96
2024-05-09T08:57:27.844Z,69.36
2024-05-09T08:58:27.755Z,67.89
2024-05-09T08:59:27.750Z,69.17
2024-05-09T09:00:35.685Z,69.02
2024-05-09T09:01:28.978Z,69.14
2024-05-09T09:02:27.879Z,69.28
2024-05-09T09:03:27.973Z,69.33
2024-05-09T09:04:27.911Z,71.40
2024-05-09T09:05:28.001Z,69.07
2024-05-09T09:06:27.838Z,72.71
2024-05-09T09:07:27.830Z,72.25
2024-05-09T09:08:27.780Z,69.87
2024-05-09T09:09:27.831Z,66.44
2024-05-09T09:10:32.063Z,69.57
2024-05-09T09:11:28.882Z,69.75
2024-05-09T09:12:27.871Z,69.67
2024-05-09T09:13:28.286Z,70.32
2024-05-09T09:14:27.785Z,69.31
2024-05-09T09:15:27.984Z,70.55
2024-05-09T09:16:27.921Z,70.78
2024-05-09T09:17:27.867Z,67.88
2024-05-09T09:18:28.118Z,67.62
2024-05-09T09:19:28.025Z,69.38
2024-05-09T09:20:35.394Z,68.89
2024-05-09T09:21:28.866Z,68.94
2024-05-09T09:22:27.816Z,69.02
2024-05-09T09:23:27.814Z,69.17
2024-05-09T09:24:27.818Z,69.11
2024-05-09T09:25:27.811Z,69.79
2024-05-09T09:26:27.812Z,67.85
2024-05-09T09:27:27.867Z,67.59
2024-05-09T09:28:27.858Z,71.62
2024-05-09T09:29:27.855Z,69.27
2024-05-09T09:30:35.380Z,67.29
2024-05-09T09:31:28.944Z,67.45
2024-05-09T09:32:27.932Z,67.79
2024-05-09T09:33:28.349Z,68.31
2024-05-09T09:34:27.980Z,67.94
2024-05-09T09:35:27.845Z,66.96
2024-05-09T09:36:27.915Z,67.74
2024-05-09T09:37:27.860Z,67.74
2024-05-09T09:38:27.855Z,68.99
2024-05-09T09:39:27.898Z,65.80
2024-05-09T09:40:32.069Z,66.27
2024-05-09T09:41:28.866Z,66.46
2024-05-09T09:42:27.912Z,66.81
2024-05-09T09:43:27.900Z,66.72
2024-05-09T09:44:27.849Z,67.57
2024-05-09T09:45:27.957Z,67.14
2024-05-09T09:46:27.970Z,68.86
2024-05-09T09:47:27.955Z,65.95
2024-05-09T09:48:27.982Z,67.19
2024-05-09T09:49:27.908Z,66.59
2024-05-09T09:50:33.995Z,68.34
2024-05-09T09:51:28.931Z,68.37
2024-05-09T09:52:27.966Z,67.50
2024-05-09T09:53:27.899Z,67.95
2024-05-09T09:54:27.940Z,67.87
2024-05-09T09:55:27.909Z,66.67
2024-05-09T09:56:27.907Z,66.11
2024-05-09T09:57:27.994Z,66.72
2024-05-09T09:58:27.978Z,66.25
2024-05-09T09:59:27.914Z,65.96
2024-05-09T10:00:32.855Z,63.58
2024-05-09T10:01:28.984Z,63.70
2024-05-09T10:02:28.072Z,63.83
2024-05-09T10:03:28.087Z,64.50
2024-05-09T10:04:28.028Z,64.49
2024-05-09T10:05:28.239Z,66.33
2024-05-09T10:06:27.954Z,65.92
2024-05-09T10:07:27.930Z,63.92
2024-05-09T10:08:27.953Z,67.22
2024-05-09T10:09:27.952Z,64.03
2024-05-09T10:10:32.314Z,65.64
2024-05-09T10:11:28.976Z,65.82
2024-05-09T10:12:28.080Z,65.73
2024-05-09T10:13:28.028Z,66.98
2024-05-09T10:14:27.952Z,66.27
2024-05-09T10:15:28.020Z,66.52
2024-05-09T10:16:27.966Z,65.69
2024-05-09T10:17:27.971Z,67.31
2024-05-09T10:18:30.377Z,65.48
2024-05-09T10:19:28.021Z,65.60
2024-05-09T10:20:32.365Z,65.78
2024-05-09T10:21:27.974Z,65.77
2024-05-09T10:22:28.016Z,66.53
2024-05-09T10:23:28.007Z,67.21
2024-05-09T10:24:28.006Z,67.11
2024-05-09T10:25:27.996Z,68.96
2024-05-09T10:26:27.997Z,69.66
2024-05-09T10:27:27.977Z,68.79
2024-05-09T10:28:27.946Z,65.78
2024-05-09T10:29:27.951Z,68.43
2024-05-09T10:30:34.125Z,64.92
2024-05-09T10:31:28.995Z,65.16
2024-05-09T10:32:28.057Z,65.88
2024-05-09T10:33:28.182Z,66.53
2024-05-09T10:34:28.138Z,67.10
2024-05-09T10:35:27.970Z,66.92
2024-05-09T10:36:27.994Z,67.53
2024-05-09T10:37:28.083Z,64.75
2024-05-09T10:38:27.971Z,67.42
2024-05-09T10:39:28.007Z,66.71
2024-05-09T10:40:31.260Z,65.55
2024-05-09T10:41:27.981Z,65.59
2024-05-09T10:42:28.029Z,63.23
2024-05-09T10:43:28.051Z,65.29
2024-05-09T10:44:28.247Z,62.95
2024-05-09T10:45:28.029Z,63.81
2024-05-09T10:46:28.061Z,63.87
2024-05-09T10:47:28.080Z,61.76
2024-05-09T10:48:28.218Z,63.22
2024-05-09T10:49:28.077Z,64.52
2024-05-09T10:50:31.847Z,63.92
2024-05-09T10:51:29.098Z,64.01
2024-05-09T10:52:28.077Z,64.04
2024-05-09T10:53:28.011Z,63.99
2024-05-09T10:54:28.102Z,62.03
2024-05-09T10:55:28.126Z,65.91
2024-05-09T10:56:28.015Z,63.78
2024-05-09T10:57:28.098Z,62.59
2024-05-09T10:58:28.047Z,64.26
2024-05-09T10:59:28.016Z,63.78
2024-05-09T11:00:33.661Z,63.11
2024-05-09T11:01:29.132Z,63.18
2024-05-09T11:02:28.205Z,63.53
2024-05-09T11:03:28.189Z,61.16
2024-05-09T11:04:28.085Z,62.64
2024-05-09T11:05:28.290Z,61.03
2024-05-09T11:06:28.087Z,60.71
2024-05-09T11:07:28.081Z,61.26
2024-05-09T11:08:28.080Z,60.44
2024-05-09T11:09:28.078Z,61.88
2024-05-09T11:10:33.702Z,60.35
2024-05-09T11:11:29.114Z,60.44
2024-05-09T11:12:28.110Z,60.50
2024-05-09T11:13:28.058Z,59.29
2024-05-09T11:14:28.053Z,60.93
2024-05-09T11:15:28.093Z,61.51
2024-05-09T11:16:28.085Z,59.00
2024-05-09T11:17:28.108Z,57.93
2024-05-09T11:18:30.662Z,60.44
2024-05-09T11:19:29.183Z,60.50
2024-05-09T11:20:29.949Z,60.48
2024-05-09T11:21:28.170Z,59.43
2024-05-09T11:22:28.141Z,59.16
2024-05-09T11:23:28.088Z,57.35
2024-05-09T11:24:28.133Z,58.65
2024-05-09T11:25:28.059Z,57.07
2024-05-09T11:26:28.115Z,56.79
2024-05-09T11:27:28.117Z,56.78
2024-05-09T11:28:28.232Z,55.26
2024-05-09T11:29:28.074Z,58.71
2024-05-09T11:30:31.870Z,57.99
2024-05-09T11:31:28.195Z,55.09
2024-05-09T11:32:28.335Z,58.17
2024-05-09T11:33:28.176Z,56.85
2024-05-09T11:34:28.158Z,56.13
2024-05-09T11:35:28.119Z,52.94
2024-05-09T11:36:28.132Z,55.49
2024-05-09T11:37:28.176Z,54.81
2024-05-09T11:38:28.291Z,53.24
2024-05-09T11:39:28.125Z,53.72
2024-05-09T11:40:33.804Z,52.73
2024-05-09T11:41:29.117Z,52.94
2024-05-09T11:42:28.135Z,53.18
2024-05-09T11:43:28.156Z,51.81
2024-05-09T11:44:28.088Z,53.04
2024-05-09T11:45:28.214Z,53.01
2024-05-09T11:46:28.165Z,50.88
2024-05-09T11:47:28.203Z,50.84
2024-05-09T11:48:28.353Z,51.01
2024-05-09T11:49:28.165Z,51.21
2024-05-09T11:50:32.853Z,51.41
2024-05-09T11:51:29.200Z,51.46
2024-05-09T11:52:28.129Z,51.61
2024-05-09T11:53:28.309Z,51.00
2024-05-09T11:54:28.159Z,49.15
2024-05-09T11:55:28.622Z,47.07
2024-05-09T11:56:28.128Z,52.19
2024-05-09T11:57:28.172Z,52.73
2024-05-09T11:58:28.174Z,53.58
2024-05-09T11:59:28.214Z,51.89
2024-05-09T12:00:34.176Z,51.37
2024-05-09T12:01:29.261Z,51.51
2024-05-09T12:02:28.155Z,51.08
2024-05-09T12:03:28.206Z,48.69
2024-05-09T12:04:28.259Z,51.59
2024-05-09T12:05:28.453Z,48.21
2024-05-09T12:06:28.176Z,51.26
2024-05-09T12:07:28.163Z,52.81
2024-05-09T12:08:28.140Z,51.07
2024-05-09T12:09:28.217Z,52.87
2024-05-09T12:10:32.893Z,53.07
2024-05-09T12:11:29.372Z,53.11
2024-05-09T12:12:28.221Z,53.34
2024-05-09T12:13:28.251Z,51.89
2024-05-09T12:14:28.161Z,53.49
2024-05-09T12:15:28.228Z,54.71
2024-05-09T12:16:28.399Z,53.26
2024-05-09T12:17:28.287Z,52.65
2024-05-09T12:18:28.293Z,51.23
2024-05-09T12:19:28.213Z,50.00
2024-05-09T12:20:35.650Z,53.94
2024-05-09T12:21:29.257Z,54.18
2024-05-09T12:22:28.173Z,54.14
2024-05-09T12:23:28.175Z,54.00
2024-05-09T12:24:28.215Z,56.05
2024-05-09T12:25:28.186Z,54.53
2024-05-09T12:26:28.177Z,56.63
2024-05-09T12:27:28.265Z,57.00
2024-05-09T12:28:28.215Z,57.04
2024-05-09T12:29:28.201Z,56.50
2024-05-09T12:30:35.838Z,55.46
2024-05-09T12:31:29.250Z,55.53
2024-05-09T12:32:28.268Z,55.72
2024-05-09T12:33:28.458Z,55.76
2024-05-09T12:34:28.344Z,56.42
2024-05-09T12:35:28.220Z,55.08
2024-05-09T12:36:28.246Z,55.51
2024-05-09T12:37:28.196Z,56.75
2024-05-09T12:38:28.280Z,53.61
2024-05-09T12:39:28.257Z,56.07
2024-05-09T12:40:35.256Z,55.14
2024-05-09T12:41:29.207Z,55.22
2024-05-09T12:42:29.885Z,55.68
2024-05-09T12:43:28.305Z,56.01
2024-05-09T12:44:28.218Z,55.77
2024-05-09T12:45:28.268Z,55.68
2024-05-09T12:46:28.508Z,56.26
2024-05-09T12:47:28.280Z,55.20
2024-05-09T12:48:28.445Z,55.28
2024-05-09T12:49:28.401Z,54.44
2024-05-09T12:50:32.718Z,55.17
2024-05-09T12:51:29.243Z,55.28
2024-05-09T12:52:28.214Z,55.25
2024-05-09T12:53:28.211Z,55.36
2024-05-09T12:54:28.353Z,55.01
2024-05-09T12:55:29.769Z,54.16
2024-05-09T12:56:28.252Z,52.08